sensor_id;sensor_type;location;lat;lon;timestamp;temperature;humidity
23120;DHT22;11729;50.836;4.330;2023-04-03T00:02:19;6.20;99.90
23120;DHT22;11729;50.836;4.330;2023-04-03T00:04:44;6.30;99.90
23120;DHT22;11729;50.836;4.330;2023-04-03T00:07:10;6.20;99.90
23120;DHT22;11729;50.836;4.330;2023-04-03T00:09:37;6.10;99.90
23120;DHT22;11729;50.836;4.330;2023-04-03T00:12:03;6.10;99.90
23120;DHT22;11729;50.836;4.330;2023-04-03T00:14:29;6.20;99.90
23120;DHT22;11729;50.836;4.330;2023-04-03T00:16:55;6.20;99.90
23120;DHT22;11729;50.836;4.330;2023-04-03T00:19:20;6.30;99.90
23120;DHT22;11729;50.836;4.330;2023-04-03T00:21:46;6.20;99.90
23120;DHT22;11729;50.836;4.330;2023-04-03T00:24:11;6.20;99.90
23120;DHT22;11729;50.836;4.330;2023-04-03T00:26:37;6.30;99.90
23120;DHT22;11729;50.836;4.330;2023-04-03T00:29:03;6.30;99.90
23120;DHT22;11729;50.836;4.330;2023-04-03T00:31:28;6.30;99.90
23120;DHT22;11729;50.836;4.330;2023-04-03T00:33:54;6.40;99.90
23120;DHT22;11729;50.836;4.330;2023-04-03T00:36:19;6.50;99.90
23120;DHT22;11729;50.836;4.330;2023-04-03T00:38:45;6.20;99.90
23120;DHT22;11729;50.836;4.330;2023-04-03T00:41:11;6.10;99.90
23120;DHT22;11729;50.836;4.330;2023-04-03T00:43:36;6.20;99.90
23120;DHT22;11729;50.836;4.330;2023-04-03T00:46:02;6.30;99.90
23120;DHT22;11729;50.836;4.330;2023-04-03T00:48:47;6.20;99.90
23120;DHT22;11729;50.836;4.330;2023-04-03T00:51:19;6.10;99.90
23120;DHT22;11729;50.836;4.330;2023-04-03T00:53:52;6.00;99.90
23120;DHT22;11729;50.836;4.330;2023-04-03T00:56:21;6.00;99.90
23120;DHT22;11729;50.836;4.330;2023-04-03T00:58:53;6.00;99.90
23120;DHT22;11729;50.836;4.330;2023-04-03T01:01:23;6.00;99.90
23120;DHT22;11729;50.836;4.330;2023-04-03T01:03:49;6.00;99.90
23120;DHT22;11729;50.836;4.330;2023-04-03T01:06:18;6.00;99.90
23120;DHT22;11729;50.836;4.330;2023-04-03T01:08:48;5.90;99.90
23120;DHT22;11729;50.836;4.330;2023-04-03T01:11:14;5.90;99.90
23120;DHT22;11729;50.836;4.330;2023-04-03T01:13:40;5.80;99.90
23120;DHT22;11729;50.836;4.330;2023-04-03T01:16:07;5.70;99.90
23120;DHT22;11729;50.836;4.330;2023-04-03T01:18:34;5.80;99.90
23120;DHT22;11729;50.836;4.330;2023-04-03T01:24:18;5.80;99.90
23120;DHT22;11729;50.836;4.330;2023-04-03T01:26:46;5.90;99.90
23120;DHT22;11729;50.836;4.330;2023-04-03T01:29:12;6.00;99.90
23120;DHT22;11729;50.836;4.330;2023-04-03T01:31:43;5.80;99.90
23120;DHT22;11729;50.836;4.330;2023-04-03T01:34:08;5.70;99.90
23120;DHT22;11729;50.836;4.330;2023-04-03T01:36:35;5.80;99.90
23120;DHT22;11729;50.836;4.330;2023-04-03T01:39:01;5.70;99.90
23120;DHT22;11729;50.836;4.330;2023-04-03T01:41:27;5.70;99.90
23120;DHT22;11729;50.836;4.330;2023-04-03T01:43:53;5.60;99.90
23120;DHT22;11729;50.836;4.330;2023-04-03T01:46:19;5.50;99.90
23120;DHT22;11729;50.836;4.330;2023-04-03T01:48:45;5.50;99.90
23120;DHT22;11729;50.836;4.330;2023-04-03T01:51:13;5.50;99.90
23120;DHT22;11729;50.836;4.330;2023-04-03T01:53:39;5.70;99.90
23120;DHT22;11729;50.836;4.330;2023-04-03T01:56:05;5.60;99.90
23120;DHT22;11729;50.836;4.330;2023-04-03T01:58:30;5.60;99.90
23120;DHT22;11729;50.836;4.330;2023-04-03T02:00:56;5.70;99.90
23120;DHT22;11729;50.836;4.330;2023-04-03T02:03:22;5.50;99.90
23120;DHT22;11729;50.836;4.330;2023-04-03T02:05:47;5.40;99.90
23120;DHT22;11729;50.836;4.330;2023-04-03T02:08:13;5.40;99.90
23120;DHT22;11729;50.836;4.330;2023-04-03T02:10:43;5.50;99.90
23120;DHT22;11729;50.836;4.330;2023-04-03T02:13:09;5.50;99.90
23120;DHT22;11729;50.836;4.330;2023-04-03T02:15:38;5.40;99.90
23120;DHT22;11729;50.836;4.330;2023-04-03T02:18:03;5.40;99.90
23120;DHT22;11729;50.836;4.330;2023-04-03T02:20:29;5.40;99.90
23120;DHT22;11729;50.836;4.330;2023-04-03T02:22:54;5.50;99.90
23120;DHT22;11729;50.836;4.330;2023-04-03T02:25:20;5.40;99.90
23120;DHT22;11729;50.836;4.330;2023-04-03T02:27:46;5.20;99.90
23120;DHT22;11729;50.836;4.330;2023-04-03T02:30:12;5.20;99.90
23120;DHT22;11729;50.836;4.330;2023-04-03T02:32:38;5.20;99.90
23120;DHT22;11729;50.836;4.330;2023-04-03T02:35:05;5.30;99.90
23120;DHT22;11729;50.836;4.330;2023-04-03T02:37:31;5.20;99.90
23120;DHT22;11729;50.836;4.330;2023-04-03T02:39:56;5.30;99.90
23120;DHT22;11729;50.836;4.330;2023-04-03T02:42:22;5.20;99.90
23120;DHT22;11729;50.836;4.330;2023-04-03T02:44:47;5.30;99.90
23120;DHT22;11729;50.836;4.330;2023-04-03T02:47:13;5.30;99.90
23120;DHT22;11729;50.836;4.330;2023-04-03T02:49:39;5.40;99.90
23120;DHT22;11729;50.836;4.330;2023-04-03T02:52:04;5.10;99.90
23120;DHT22;11729;50.836;4.330;2023-04-03T02:54:30;5.20;99.90
23120;DHT22;11729;50.836;4.330;2023-04-03T02:56:57;5.10;99.90
23120;DHT22;11729;50.836;4.330;2023-04-03T02:59:23;5.10;99.90
23120;DHT22;11729;50.836;4.330;2023-04-03T03:01:48;5.10;99.90
23120;DHT22;11729;50.836;4.330;2023-04-03T03:04:14;5.20;99.90
23120;DHT22;11729;50.836;4.330;2023-04-03T03:06:39;5.20;99.90
23120;DHT22;11729;50.836;4.330;2023-04-03T03:09:05;5.10;99.90
23120;DHT22;11729;50.836;4.330;2023-04-03T03:11:31;5.20;99.90
23120;DHT22;11729;50.836;4.330;2023-04-03T03:13:57;5.10;99.90
23120;DHT22;11729;50.836;4.330;2023-04-03T03:16:23;5.00;99.90
23120;DHT22;11729;50.836;4.330;2023-04-03T03:18:48;5.00;99.90
23120;DHT22;11729;50.836;4.330;2023-04-03T03:21:15;4.90;99.90
23120;DHT22;11729;50.836;4.330;2023-04-03T03:23:40;4.80;99.90
23120;DHT22;11729;50.836;4.330;2023-04-03T03:26:09;4.70;99.90
23120;DHT22;11729;50.836;4.330;2023-04-03T03:28:36;4.90;99.90
23120;DHT22;11729;50.836;4.330;2023-04-03T03:31:03;4.90;99.90
23120;DHT22;11729;50.836;4.330;2023-04-03T03:33:29;5.00;99.90
23120;DHT22;11729;50.836;4.330;2023-04-03T03:35:55;5.00;99.90
23120;DHT22;11729;50.836;4.330;2023-04-03T03:38:37;4.90;99.90
23120;DHT22;11729;50.836;4.330;2023-04-03T03:41:03;5.00;99.90
23120;DHT22;11729;50.836;4.330;2023-04-03T03:43:29;5.00;99.90
23120;DHT22;11729;50.836;4.330;2023-04-03T03:45:55;4.90;99.90
23120;DHT22;11729;50.836;4.330;2023-04-03T03:48:21;5.10;99.90
23120;DHT22;11729;50.836;4.330;2023-04-03T03:50:47;5.00;99.90
23120;DHT22;11729;50.836;4.330;2023-04-03T03:53:14;4.80;99.90
23120;DHT22;11729;50.836;4.330;2023-04-03T03:55:40;4.70;99.90
23120;DHT22;11729;50.836;4.330;2023-04-03T03:58:06;4.60;99.90
23120;DHT22;11729;50.836;4.330;2023-04-03T04:00:34;4.80;99.90
23120;DHT22;11729;50.836;4.330;2023-04-03T04:03:00;4.80;99.90
23120;DHT22;11729;50.836;4.330;2023-04-03T04:05:26;4.90;99.90
23120;DHT22;11729;50.836;4.330;2023-04-03T04:07:51;4.90;99.90
23120;DHT22;11729;50.836;4.330;2023-04-03T04:10:17;4.80;99.90
23120;DHT22;11729;50.836;4.330;2023-04-03T04:12:43;4.60;99.90
23120;DHT22;11729;50.836;4.330;2023-04-03T04:15:09;4.50;99.90
23120;DHT22;11729;50.836;4.330;2023-04-03T04:17:34;4.60;99.90
23120;DHT22;11729;50.836;4.330;2023-04-03T04:20:02;4.60;99.90
23120;DHT22;11729;50.836;4.330;2023-04-03T04:22:29;4.60;99.90
23120;DHT22;11729;50.836;4.330;2023-04-03T04:24:55;4.60;99.90
23120;DHT22;11729;50.836;4.330;2023-04-03T04:27:20;4.50;99.90
23120;DHT22;11729;50.836;4.330;2023-04-03T04:29:46;4.50;99.90
23120;DHT22;11729;50.836;4.330;2023-04-03T04:32:11;4.50;99.90
23120;DHT22;11729;50.836;4.330;2023-04-03T04:34:37;4.50;99.90
23120;DHT22;11729;50.836;4.330;2023-04-03T04:37:03;4.60;99.90
23120;DHT22;11729;50.836;4.330;2023-04-03T04:39:28;4.50;99.90
23120;DHT22;11729;50.836;4.330;2023-04-03T04:41:55;4.50;99.90
23120;DHT22;11729;50.836;4.330;2023-04-03T04:44:21;4.50;99.90
23120;DHT22;11729;50.836;4.330;2023-04-03T04:46:46;4.50;99.90
23120;DHT22;11729;50.836;4.330;2023-04-03T04:49:12;4.50;99.90
23120;DHT22;11729;50.836;4.330;2023-04-03T04:51:37;4.60;99.90
23120;DHT22;11729;50.836;4.330;2023-04-03T04:54:03;4.50;99.90
23120;DHT22;11729;50.836;4.330;2023-04-03T04:56:29;4.50;99.90
23120;DHT22;11729;50.836;4.330;2023-04-03T04:58:55;4.50;99.90
23120;DHT22;11729;50.836;4.330;2023-04-03T05:01:20;4.60;99.90
23120;DHT22;11729;50.836;4.330;2023-04-03T05:03:47;4.60;99.90
23120;DHT22;11729;50.836;4.330;2023-04-03T05:06:13;4.50;99.90
23120;DHT22;11729;50.836;4.330;2023-04-03T05:08:39;4.50;99.90
23120;DHT22;11729;50.836;4.330;2023-04-03T05:11:05;4.40;99.90
23120;DHT22;11729;50.836;4.330;2023-04-03T05:13:30;4.50;99.90
23120;DHT22;11729;50.836;4.330;2023-04-03T05:15:56;4.40;99.90
23120;DHT22;11729;50.836;4.330;2023-04-03T05:18:22;4.30;99.90
23120;DHT22;11729;50.836;4.330;2023-04-03T05:20:49;4.40;99.90
23120;DHT22;11729;50.836;4.330;2023-04-03T05:23:16;4.50;99.90
23120;DHT22;11729;50.836;4.330;2023-04-03T05:25:42;4.60;99.90
23120;DHT22;11729;50.836;4.330;2023-04-03T05:28:11;4.60;99.90
23120;DHT22;11729;50.836;4.330;2023-04-03T05:30:37;4.50;99.90
23120;DHT22;11729;50.836;4.330;2023-04-03T05:33:02;4.50;99.90
23120;DHT22;11729;50.836;4.330;2023-04-03T05:35:28;4.40;99.90
23120;DHT22;11729;50.836;4.330;2023-04-03T05:37:54;4.50;99.90
23120;DHT22;11729;50.836;4.330;2023-04-03T05:40:21;4.50;99.90
23120;DHT22;11729;50.836;4.330;2023-04-03T05:42:47;4.60;99.90
23120;DHT22;11729;50.836;4.330;2023-04-03T05:45:13;4.50;99.90
23120;DHT22;11729;50.836;4.330;2023-04-03T05:47:38;4.60;99.90
23120;DHT22;11729;50.836;4.330;2023-04-03T05:50:06;4.80;99.90
23120;DHT22;11729;50.836;4.330;2023-04-03T05:52:36;5.10;99.90
23120;DHT22;11729;50.836;4.330;2023-04-03T05:55:02;4.90;99.90
23120;DHT22;11729;50.836;4.330;2023-04-03T05:57:30;4.80;99.90
23120;DHT22;11729;50.836;4.330;2023-04-03T05:59:55;4.70;99.90
23120;DHT22;11729;50.836;4.330;2023-04-03T06:02:23;4.80;99.90
23120;DHT22;11729;50.836;4.330;2023-04-03T06:04:50;4.80;99.90
23120;DHT22;11729;50.836;4.330;2023-04-03T06:07:23;4.80;99.90
23120;DHT22;11729;50.836;4.330;2023-04-03T06:09:52;4.90;99.90
23120;DHT22;11729;50.836;4.330;2023-04-03T06:12:18;4.80;99.90
23120;DHT22;11729;50.836;4.330;2023-04-03T06:14:44;4.70;99.90
23120;DHT22;11729;50.836;4.330;2023-04-03T06:17:10;4.90;99.90
23120;DHT22;11729;50.836;4.330;2023-04-03T06:19:36;4.90;99.90
23120;DHT22;11729;50.836;4.330;2023-04-03T06:22:01;5.10;99.90
23120;DHT22;11729;50.836;4.330;2023-04-03T06:24:28;5.20;99.90
23120;DHT22;11729;50.836;4.330;2023-04-03T06:26:54;5.30;99.90
23120;DHT22;11729;50.836;4.330;2023-04-03T06:29:20;5.30;99.90
23120;DHT22;11729;50.836;4.330;2023-04-03T06:31:46;5.40;99.90
23120;DHT22;11729;50.836;4.330;2023-04-03T06:34:12;5.50;99.90
23120;DHT22;11729;50.836;4.330;2023-04-03T06:36:39;5.60;99.90
23120;DHT22;11729;50.836;4.330;2023-04-03T06:39:05;5.60;99.90
23120;DHT22;11729;50.836;4.330;2023-04-03T06:41:30;5.70;99.90
23120;DHT22;11729;50.836;4.330;2023-04-03T06:43:56;6.20;99.90
23120;DHT22;11729;50.836;4.330;2023-04-03T06:46:24;7.40;99.90
23120;DHT22;11729;50.836;4.330;2023-04-03T06:48:51;8.40;99.90
23120;DHT22;11729;50.836;4.330;2023-04-03T06:51:21;9.10;99.90
23120;DHT22;11729;50.836;4.330;2023-04-03T06:53:48;10.20;99.90
23120;DHT22;11729;50.836;4.330;2023-04-03T06:56:14;11.30;99.90
23120;DHT22;11729;50.836;4.330;2023-04-03T06:58:40;12.00;99.90
23120;DHT22;11729;50.836;4.330;2023-04-03T07:01:07;12.60;99.90
23120;DHT22;11729;50.836;4.330;2023-04-03T07:03:33;13.20;99.90
23120;DHT22;11729;50.836;4.330;2023-04-03T07:05:58;14.10;99.90
23120;DHT22;11729;50.836;4.330;2023-04-03T07:08:24;14.90;99.90
23120;DHT22;11729;50.836;4.330;2023-04-03T07:10:51;15.50;99.90
23120;DHT22;11729;50.836;4.330;2023-04-03T07:13:17;16.10;99.10
23120;DHT22;11729;50.836;4.330;2023-04-03T07:15:42;16.50;96.90
23120;DHT22;11729;50.836;4.330;2023-04-03T07:18:08;16.90;95.90
23120;DHT22;11729;50.836;4.330;2023-04-03T07:20:34;17.10;94.20
23120;DHT22;11729;50.836;4.330;2023-04-03T07:22:59;17.10;92.80
23120;DHT22;11729;50.836;4.330;2023-04-03T07:25:27;17.10;92.60
23120;DHT22;11729;50.836;4.330;2023-04-03T07:27:53;17.20;92.30
23120;DHT22;11729;50.836;4.330;2023-04-03T07:30:25;17.00;92.20
23120;DHT22;11729;50.836;4.330;2023-04-03T07:32:51;16.20;92.20
23120;DHT22;11729;50.836;4.330;2023-04-03T07:35:17;16.40;92.80
23120;DHT22;11729;50.836;4.330;2023-04-03T07:37:43;16.80;91.60
23120;DHT22;11729;50.836;4.330;2023-04-03T07:40:11;17.10;91.80
23120;DHT22;11729;50.836;4.330;2023-04-03T07:42:36;16.10;92.60
23120;DHT22;11729;50.836;4.330;2023-04-03T07:45:03;15.90;92.30
23120;DHT22;11729;50.836;4.330;2023-04-03T07:47:30;16.10;92.60
23120;DHT22;11729;50.836;4.330;2023-04-03T07:49:57;16.10;92.30
23120;DHT22;11729;50.836;4.330;2023-04-03T07:52:23;16.20;91.90
23120;DHT22;11729;50.836;4.330;2023-04-03T07:54:49;16.10;91.70
23120;DHT22;11729;50.836;4.330;2023-04-03T07:57:15;16.40;92.80
23120;DHT22;11729;50.836;4.330;2023-04-03T07:59:41;16.70;89.40
23120;DHT22;11729;50.836;4.330;2023-04-03T08:02:11;16.90;90.90
23120;DHT22;11729;50.836;4.330;2023-04-03T08:04:37;17.00;90.20
23120;DHT22;11729;50.836;4.330;2023-04-03T08:07:02;17.10;90.10
23120;DHT22;11729;50.836;4.330;2023-04-03T08:09:28;17.20;89.50
23120;DHT22;11729;50.836;4.330;2023-04-03T08:11:53;17.20;86.90
23120;DHT22;11729;50.836;4.330;2023-04-03T08:14:19;17.40;86.40
23120;DHT22;11729;50.836;4.330;2023-04-03T08:16:47;17.10;86.90
23120;DHT22;11729;50.836;4.330;2023-04-03T08:19:13;17.10;86.90
23120;DHT22;11729;50.836;4.330;2023-04-03T08:21:41;17.10;87.70
23120;DHT22;11729;50.836;4.330;2023-04-03T08:24:07;17.20;85.80
23120;DHT22;11729;50.836;4.330;2023-04-03T08:26:33;16.10;86.10
23120;DHT22;11729;50.836;4.330;2023-04-03T08:28:59;16.60;89.60
23120;DHT22;11729;50.836;4.330;2023-04-03T08:31:25;17.20;88.40
23120;DHT22;11729;50.836;4.330;2023-04-03T08:33:51;17.20;85.90
23120;DHT22;11729;50.836;4.330;2023-04-03T08:36:20;17.10;82.40
23120;DHT22;11729;50.836;4.330;2023-04-03T08:38:46;17.50;83.90
23120;DHT22;11729;50.836;4.330;2023-04-03T08:44:15;17.20;84.20
23120;DHT22;11729;50.836;4.330;2023-04-03T08:47:11;17.50;83.60
23120;DHT22;11729;50.836;4.330;2023-04-03T08:50:01;17.60;82.90
23120;DHT22;11729;50.836;4.330;2023-04-03T08:52:47;17.60;83.00
23120;DHT22;11729;50.836;4.330;2023-04-03T08:55:37;16.60;84.10
23120;DHT22;11729;50.836;4.330;2023-04-03T08:58:26;15.30;87.10
23120;DHT22;11729;50.836;4.330;2023-04-03T09:01:15;15.70;88.70
23120;DHT22;11729;50.836;4.330;2023-04-03T09:03:42;16.50;88.50
23120;DHT22;11729;50.836;4.330;2023-04-03T09:06:13;17.30;86.80
23120;DHT22;11729;50.836;4.330;2023-04-03T09:08:45;17.60;80.50
23120;DHT22;11729;50.836;4.330;2023-04-03T09:11:55;17.50;79.00
23120;DHT22;11729;50.836;4.330;2023-04-03T09:20:21;16.60;80.90
23120;DHT22;11729;50.836;4.330;2023-04-03T09:22:51;16.90;80.00
23120;DHT22;11729;50.836;4.330;2023-04-03T09:25:25;16.60;82.30
23120;DHT22;11729;50.836;4.330;2023-04-03T09:27:53;17.30;81.30
23120;DHT22;11729;50.836;4.330;2023-04-03T09:30:21;17.50;81.10
23120;DHT22;11729;50.836;4.330;2023-04-03T09:32:51;17.50;80.00
23120;DHT22;11729;50.836;4.330;2023-04-03T09:37:47;17.60;75.10
23120;DHT22;11729;50.836;4.330;2023-04-03T09:42:54;17.30;76.00
23120;DHT22;11729;50.836;4.330;2023-04-03T09:45:40;16.70;74.50
23120;DHT22;11729;50.836;4.330;2023-04-03T09:51:01;17.10;74.20
23120;DHT22;11729;50.836;4.330;2023-04-03T09:53:41;16.90;72.20
23120;DHT22;11729;50.836;4.330;2023-04-03T09:58:46;16.80;73.40
23120;DHT22;11729;50.836;4.330;2023-04-03T10:01:35;16.20;73.80
23120;DHT22;11729;50.836;4.330;2023-04-03T10:04:14;15.70;77.60
23120;DHT22;11729;50.836;4.330;2023-04-03T10:06:49;15.30;76.30
23120;DHT22;11729;50.836;4.330;2023-04-03T10:09:28;15.50;76.60
23120;DHT22;11729;50.836;4.330;2023-04-03T10:12:04;15.00;76.20
23120;DHT22;11729;50.836;4.330;2023-04-03T10:14:36;14.90;74.60
23120;DHT22;11729;50.836;4.330;2023-04-03T10:17:18;15.70;75.40
23120;DHT22;11729;50.836;4.330;2023-04-03T10:19:50;15.90;74.70
23120;DHT22;11729;50.836;4.330;2023-04-03T10:22:33;16.50;77.20
23120;DHT22;11729;50.836;4.330;2023-04-03T10:25:20;17.00;71.50
23120;DHT22;11729;50.836;4.330;2023-04-03T10:28:01;15.30;70.00
23120;DHT22;11729;50.836;4.330;2023-04-03T10:38:48;15.60;69.60
23120;DHT22;11729;50.836;4.330;2023-04-03T10:44:11;14.60;77.40
23120;DHT22;11729;50.836;4.330;2023-04-03T10:46:56;15.40;78.30
23120;DHT22;11729;50.836;4.330;2023-04-03T10:49:59;15.70;71.90
23120;DHT22;11729;50.836;4.330;2023-04-03T10:57:58;15.90;69.30
23120;DHT22;11729;50.836;4.330;2023-04-03T11:00:42;15.90;64.50
23120;DHT22;11729;50.836;4.330;2023-04-03T11:03:39;15.40;68.90
23120;DHT22;11729;50.836;4.330;2023-04-03T11:06:08;15.10;67.20
23120;DHT22;11729;50.836;4.330;2023-04-03T11:09:03;15.60;72.00
23120;DHT22;11729;50.836;4.330;2023-04-03T11:11:35;16.50;66.10
23120;DHT22;11729;50.836;4.330;2023-04-03T11:14:28;15.80;61.70
23120;DHT22;11729;50.836;4.330;2023-04-03T11:19:52;16.10;66.00
23120;DHT22;11729;50.836;4.330;2023-04-03T11:22:52;16.60;60.80
23120;DHT22;11729;50.836;4.330;2023-04-03T11:25:24;16.70;64.90
23120;DHT22;11729;50.836;4.330;2023-04-03T11:27:57;15.80;60.70
23120;DHT22;11729;50.836;4.330;2023-04-03T11:35:46;16.30;61.80
23120;DHT22;11729;50.836;4.330;2023-04-03T11:38:30;16.60;65.50
23120;DHT22;11729;50.836;4.330;2023-04-03T11:40:57;16.90;64.00
23120;DHT22;11729;50.836;4.330;2023-04-03T11:43:30;16.30;63.00
23120;DHT22;11729;50.836;4.330;2023-04-03T11:46:02;16.20;65.10
23120;DHT22;11729;50.836;4.330;2023-04-03T11:48:49;15.30;70.10
23120;DHT22;11729;50.836;4.330;2023-04-03T11:53:41;16.90;68.80
23120;DHT22;11729;50.836;4.330;2023-04-03T12:01:53;16.40;62.30
23120;DHT22;11729;50.836;4.330;2023-04-03T12:04:21;16.00;63.80
23120;DHT22;11729;50.836;4.330;2023-04-03T12:11:51;16.90;59.20
23120;DHT22;11729;50.836;4.330;2023-04-03T12:14:17;16.50;57.30
23120;DHT22;11729;50.836;4.330;2023-04-03T12:16:46;16.70;58.60
23120;DHT22;11729;50.836;4.330;2023-04-03T12:29:27;16.10;58.30
23120;DHT22;11729;50.836;4.330;2023-04-03T12:32:17;16.50;56.50
23120;DHT22;11729;50.836;4.330;2023-04-03T12:43:31;16.90;55.50
23120;DHT22;11729;50.836;4.330;2023-04-03T12:51:18;15.00;53.80
23120;DHT22;11729;50.836;4.330;2023-04-03T12:53:45;15.30;57.10
23120;DHT22;11729;50.836;4.330;2023-04-03T12:56:24;15.70;54.80
23120;DHT22;11729;50.836;4.330;2023-04-03T12:58:51;16.10;55.10
23120;DHT22;11729;50.836;4.330;2023-04-03T13:01:21;16.10;53.50
23120;DHT22;11729;50.836;4.330;2023-04-03T13:03:52;16.10;52.90
23120;DHT22;11729;50.836;4.330;2023-04-03T13:06:32;15.40;52.50
23120;DHT22;11729;50.836;4.330;2023-04-03T13:09:01;15.80;54.60
23120;DHT22;11729;50.836;4.330;2023-04-03T13:11:38;16.20;55.00
23120;DHT22;11729;50.836;4.330;2023-04-03T13:14:16;16.00;52.60
23120;DHT22;11729;50.836;4.330;2023-04-03T13:16:42;16.00;51.80
23120;DHT22;11729;50.836;4.330;2023-04-03T13:19:17;16.50;54.80
23120;DHT22;11729;50.836;4.330;2023-04-03T13:21:44;17.40;51.30
23120;DHT22;11729;50.836;4.330;2023-04-03T13:24:11;17.40;51.90
23120;DHT22;11729;50.836;4.330;2023-04-03T13:26:37;17.30;49.00
23120;DHT22;11729;50.836;4.330;2023-04-03T13:29:06;17.70;50.80
23120;DHT22;11729;50.836;4.330;2023-04-03T13:31:36;17.80;47.50
23120;DHT22;11729;50.836;4.330;2023-04-03T13:34:07;17.80;46.70
23120;DHT22;11729;50.836;4.330;2023-04-03T13:36:41;17.30;46.50
23120;DHT22;11729;50.836;4.330;2023-04-03T13:41:45;16.40;46.20
23120;DHT22;11729;50.836;4.330;2023-04-03T13:46:58;16.80;47.70
23120;DHT22;11729;50.836;4.330;2023-04-03T13:49:34;17.10;47.80
23120;DHT22;11729;50.836;4.330;2023-04-03T13:54:46;17.30;47.30
23120;DHT22;11729;50.836;4.330;2023-04-03T13:57:15;16.90;47.70
23120;DHT22;11729;50.836;4.330;2023-04-03T13:59:42;17.00;49.30
23120;DHT22;11729;50.836;4.330;2023-04-03T14:07:02;14.10;51.10
23120;DHT22;11729;50.836;4.330;2023-04-03T14:09:28;14.10;52.90
23120;DHT22;11729;50.836;4.330;2023-04-03T14:12:00;13.80;52.30
23120;DHT22;11729;50.836;4.330;2023-04-03T14:14:32;13.10;51.50
23120;DHT22;11729;50.836;4.330;2023-04-03T14:17:01;13.00;55.90
23120;DHT22;11729;50.836;4.330;2023-04-03T14:19:33;13.20;55.00
23120;DHT22;11729;50.836;4.330;2023-04-03T14:22:01;13.20;56.10
23120;DHT22;11729;50.836;4.330;2023-04-03T14:24:31;13.20;56.00
23120;DHT22;11729;50.836;4.330;2023-04-03T14:26:58;13.10;54.30
23120;DHT22;11729;50.836;4.330;2023-04-03T14:29:24;12.80;54.70
23120;DHT22;11729;50.836;4.330;2023-04-03T14:31:50;12.60;54.90
23120;DHT22;11729;50.836;4.330;2023-04-03T14:34:17;12.50;54.80
23120;DHT22;11729;50.836;4.330;2023-04-03T14:36:45;12.80;56.40
23120;DHT22;11729;50.836;4.330;2023-04-03T14:39:17;12.80;54.50
23120;DHT22;11729;50.836;4.330;2023-04-03T14:41:45;12.50;55.30
23120;DHT22;11729;50.836;4.330;2023-04-03T14:44:11;12.60;56.20
23120;DHT22;11729;50.836;4.330;2023-04-03T14:46:39;12.70;54.40
23120;DHT22;11729;50.836;4.330;2023-04-03T14:49:15;12.40;53.60
23120;DHT22;11729;50.836;4.330;2023-04-03T14:51:41;12.50;55.30
23120;DHT22;11729;50.836;4.330;2023-04-03T14:54:19;12.50;54.50
23120;DHT22;11729;50.836;4.330;2023-04-03T14:56:46;12.40;55.50
23120;DHT22;11729;50.836;4.330;2023-04-03T14:59:14;12.50;57.40
23120;DHT22;11729;50.836;4.330;2023-04-03T15:01:40;12.60;56.30
23120;DHT22;11729;50.836;4.330;2023-04-03T15:04:14;12.40;56.40
23120;DHT22;11729;50.836;4.330;2023-04-03T15:06:40;12.50;57.50
23120;DHT22;11729;50.836;4.330;2023-04-03T15:11:40;12.60;57.00
23120;DHT22;11729;50.836;4.330;2023-04-03T15:14:08;12.50;56.90
23120;DHT22;11729;50.836;4.330;2023-04-03T15:16:34;12.60;58.90
23120;DHT22;11729;50.836;4.330;2023-04-03T15:19:00;12.50;57.20
23120;DHT22;11729;50.836;4.330;2023-04-03T15:21:27;12.60;57.60
23120;DHT22;11729;50.836;4.330;2023-04-03T15:23:52;12.40;54.90
23120;DHT22;11729;50.836;4.330;2023-04-03T15:26:19;12.40;54.90
23120;DHT22;11729;50.836;4.330;2023-04-03T15:28:46;12.40;56.70
23120;DHT22;11729;50.836;4.330;2023-04-03T15:31:11;12.30;56.00
23120;DHT22;11729;50.836;4.330;2023-04-03T15:33:38;12.10;56.00
23120;DHT22;11729;50.836;4.330;2023-04-03T15:36:04;11.90;56.70
23120;DHT22;11729;50.836;4.330;2023-04-03T15:38:30;11.90;56.20
23120;DHT22;11729;50.836;4.330;2023-04-03T15:40:57;11.80;55.40
23120;DHT22;11729;50.836;4.330;2023-04-03T15:43:23;11.90;56.40
23120;DHT22;11729;50.836;4.330;2023-04-03T15:45:49;11.90;56.60
23120;DHT22;11729;50.836;4.330;2023-04-03T15:48:17;11.90;55.70
23120;DHT22;11729;50.836;4.330;2023-04-03T15:50:43;12.00;56.40
23120;DHT22;11729;50.836;4.330;2023-04-03T15:53:10;11.90;56.40
23120;DHT22;11729;50.836;4.330;2023-04-03T15:55:37;12.00;57.50
23120;DHT22;11729;50.836;4.330;2023-04-03T15:58:03;12.00;55.50
23120;DHT22;11729;50.836;4.330;2023-04-03T16:00:31;11.70;54.70
23120;DHT22;11729;50.836;4.330;2023-04-03T16:03:04;11.70;57.00
23120;DHT22;11729;50.836;4.330;2023-04-03T16:05:31;11.70;56.70
23120;DHT22;11729;50.836;4.330;2023-04-03T16:07:59;11.70;57.50
23120;DHT22;11729;50.836;4.330;2023-04-03T16:10:26;11.70;58.90
23120;DHT22;11729;50.836;4.330;2023-04-03T16:12:51;11.70;58.10
23120;DHT22;11729;50.836;4.330;2023-04-03T16:15:17;11.40;58.50
23120;DHT22;11729;50.836;4.330;2023-04-03T16:17:43;11.10;59.40
23120;DHT22;11729;50.836;4.330;2023-04-03T16:20:11;11.30;59.90
23120;DHT22;11729;50.836;4.330;2023-04-03T16:22:39;11.40;62.00
23120;DHT22;11729;50.836;4.330;2023-04-03T16:25:06;11.50;62.40
23120;DHT22;11729;50.836;4.330;2023-04-03T16:27:32;11.50;62.30
23120;DHT22;11729;50.836;4.330;2023-04-03T16:29:58;11.50;61.50
23120;DHT22;11729;50.836;4.330;2023-04-03T16:32:26;11.50;61.90
23120;DHT22;11729;50.836;4.330;2023-04-03T16:34:53;11.40;63.90
23120;DHT22;11729;50.836;4.330;2023-04-03T16:37:18;11.50;64.10
23120;DHT22;11729;50.836;4.330;2023-04-03T16:39:44;11.50;61.80
23120;DHT22;11729;50.836;4.330;2023-04-03T16:42:10;11.40;63.00
23120;DHT22;11729;50.836;4.330;2023-04-03T16:44:36;11.40;63.10
23120;DHT22;11729;50.836;4.330;2023-04-03T16:47:02;11.40;64.10
23120;DHT22;11729;50.836;4.330;2023-04-03T16:49:27;11.20;64.20
23120;DHT22;11729;50.836;4.330;2023-04-03T16:51:59;11.20;63.90
23120;DHT22;11729;50.836;4.330;2023-04-03T16:54:26;11.10;66.00
23120;DHT22;11729;50.836;4.330;2023-04-03T16:56:52;11.00;67.20
23120;DHT22;11729;50.836;4.330;2023-04-03T16:59:17;10.80;66.50
23120;DHT22;11729;50.836;4.330;2023-04-03T17:01:45;10.70;67.00
23120;DHT22;11729;50.836;4.330;2023-04-03T17:04:10;10.80;68.40
23120;DHT22;11729;50.836;4.330;2023-04-03T17:06:38;10.80;68.00
23120;DHT22;11729;50.836;4.330;2023-04-03T17:09:04;10.80;69.30
23120;DHT22;11729;50.836;4.330;2023-04-03T17:11:31;10.90;69.90
23120;DHT22;11729;50.836;4.330;2023-04-03T17:13:57;10.80;70.80
23120;DHT22;11729;50.836;4.330;2023-04-03T17:16:24;10.80;70.80
23120;DHT22;11729;50.836;4.330;2023-04-03T17:18:50;10.90;69.80
23120;DHT22;11729;50.836;4.330;2023-04-03T17:21:17;11.00;69.30
23120;DHT22;11729;50.836;4.330;2023-04-03T17:23:48;10.90;69.00
23120;DHT22;11729;50.836;4.330;2023-04-03T17:26:14;10.90;71.80
23120;DHT22;11729;50.836;4.330;2023-04-03T17:28:39;10.70;70.00